»·PEaware :: SKY59 KPRC-KHII

SKY59 :: KPRC-KHII

FLIGHT INFORMATION

Flight Status: Arrived
Operator:
Sky High Charters
More flights by this operator :: More flights under this callsign
Pilot: Max W. (2591)
Aircraft: BEECH AIRCRAFT PREMIER
(PRM1)
More flights by this aircraft type
Origin: KPRC Love
United States
Destination: KHII Lake Havasu City
United States
More flights between these airports :: More routes between these airports
Route: WNSKI1 MUMTE V12 EED
File this flight plan on PilotEdge
Remarks:
Altitude:
(Current/Filed)
16,000ft
Speed:
(Current/Filed)
350kts
Departed: 19-Jun-19 04:52 PM
Arrived: 19-Jun-19 05:27 PM
Distance/Time
Traveled:
96nm/0:35
Distance/Time
To Go:
Arrived

Flight Plot

Page will automatically refresh every two minutes.

Flight plan parsing failed; only flown route is shown


Map Options




Map Legend


Flown Route
Filed Route
Departure Airport
Arrival Airport
Navaid (VOR, NDB)
Fix

Horizontal Profiles

Position Reports

Time Latitude Longitude Heading Altitude Ground
Speed
19-Jun-19 16:24 34.646714 -112.424192 308 5027ft 0kts
19-Jun-19 16:25 34.646714 -112.424192 308 5027ft 0kts
19-Jun-19 16:26 34.646714 -112.424192 308 5027ft 0kts
19-Jun-19 16:27 34.646714 -112.424193 308 5027ft 0kts
19-Jun-19 16:28 34.646714 -112.424193 308 5027ft 0kts
19-Jun-19 16:29 34.646714 -112.424193 308 5027ft 0kts
19-Jun-19 16:30 34.646714 -112.424193 308 5027ft 0kts
19-Jun-19 16:31 34.646714 -112.424193 308 5027ft 0kts
19-Jun-19 16:32 34.646714 -112.424193 308 5027ft 0kts
19-Jun-19 16:33 34.646714 -112.424193 308 5027ft 0kts
19-Jun-19 16:34 34.646714 -112.424193 308 5027ft 0kts
19-Jun-19 16:35 34.646714 -112.424193 308 5027ft 0kts
19-Jun-19 16:36 34.646714 -112.424193 308 5027ft 0kts
19-Jun-19 16:37 34.646714 -112.424193 308 5027ft 0kts
19-Jun-19 16:38 34.646714 -112.424193 308 5027ft 0kts
19-Jun-19 16:39 34.646714 -112.424193 308 5027ft 0kts
19-Jun-19 16:40 34.646714 -112.424193 308 5027ft 0kts
19-Jun-19 16:41 34.646714 -112.424193 308 5027ft 0kts
19-Jun-19 16:42 34.647064 -112.424951 311 5028ft 0kts
19-Jun-19 16:43 34.648996 -112.423562 45 5016ft 20kts
19-Jun-19 16:44 34.653110 -112.419176 41 5013ft 16kts
19-Jun-19 16:45 34.657509 -112.414511 42 4978ft 20kts
19-Jun-19 16:46 34.661054 -112.410152 13 4949ft 0kts
19-Jun-19 16:47 34.661054 -112.410152 13 4949ft 0kts
19-Jun-19 16:48 34.661054 -112.410152 13 4949ft 0kts
19-Jun-19 16:49 34.661054 -112.410152 13 4949ft 0kts
19-Jun-19 16:50 34.661885 -112.411612 219 4949ft 0kts
19-Jun-19 16:51 34.641560 -112.433748 225 5724ft 176kts
19-Jun-19 16:52 34.605348 -112.414563 82 7720ft 215kts
19-Jun-19 16:53 34.615746 -112.350095 129 9516ft 208kts
19-Jun-19 16:54 34.576867 -112.298219 134 11938ft 223kts
19-Jun-19 16:55 34.534784 -112.246621 168 14748ft 217kts
19-Jun-19 16:56 34.503111 -112.306606 260 16000ft 241kts
19-Jun-19 16:57 34.476659 -112.379068 241 15994ft 241kts
19-Jun-19 16:58 34.453530 -112.456742 268 16070ft 262kts
19-Jun-19 16:59 34.466204 -112.544055 291 16069ft 276kts
19-Jun-19 17:00 34.487304 -112.635546 298 16018ft 289kts
19-Jun-19 17:01 34.538640 -112.708158 315 16028ft 284kts
19-Jun-19 17:02 34.606223 -112.760306 338 16054ft 296kts
19-Jun-19 17:03 34.686826 -112.788075 354 16103ft 300kts
19-Jun-19 17:04 34.718952 -112.859258 269 16104ft 298kts
19-Jun-19 17:05 34.721409 -112.975216 271 16108ft 376kts
19-Jun-19 17:06 34.726090 -113.108141 271 16080ft 403kts
19-Jun-19 17:07 34.730819 -113.244785 271 16001ft 406kts
19-Jun-19 17:08 34.735417 -113.382390 271 15973ft 407kts
19-Jun-19 17:09 34.739780 -113.519762 271 15972ft 406kts
19-Jun-19 17:10 34.743949 -113.654870 271 16211ft 400kts
19-Jun-19 17:11 34.747986 -113.790572 271 16267ft 403kts
19-Jun-19 17:12 34.751897 -113.927869 271 16107ft 409kts
19-Jun-19 17:13 34.755465 -114.056227 271 14551ft 362kts
19-Jun-19 17:14 34.758649 -114.176566 270 13046ft 353kts
19-Jun-19 17:15 34.761455 -114.285697 270 11112ft 289kts
19-Jun-19 17:16 34.763844 -114.383095 270 8613ft 283kts
19-Jun-19 17:17 34.766142 -114.476342 270 6217ft 268kts
19-Jun-19 17:18 34.795736 -114.546445 344 6122ft 266kts
19-Jun-19 17:19 34.861531 -114.543090 59 5023ft 218kts
19-Jun-19 17:20 34.835165 -114.492821 167 5014ft 217kts
19-Jun-19 17:21 34.774964 -114.476372 168 5003ft 223kts
19-Jun-19 17:22 34.721712 -114.456559 164 4347ft 198kts
19-Jun-19 17:23 34.669261 -114.434962 154 3124ft 195kts
19-Jun-19 17:24 34.625489 -114.401088 149 2248ft 182kts
19-Jun-19 17:25 34.592052 -114.373169 152 1066ft 120kts
19-Jun-19 17:26 34.569835 -114.357567 177 754ft 29kts
19-Jun-19 17:27 34.568787 -114.357957 280 754ft 0kts
19-Jun-19 17:28 34.571559 -114.359944 329 754ft 17kts
19-Jun-19 17:29 34.571351 -114.360629 64 754ft 0kts

Navigation Log

Ident Type
Flight plan parsing failed, navigation log unavailable